Time,TemperatureF,DewpointF,PressureIn,WindDirection,WindDirectionDegrees,WindSpeedMPH,WindSpeedGustMPH,Humidity,HourlyPrecipIn,Conditions,Clouds,dailyrainin,SolarRadiationWatts/m^2,SoftwareType,DateUTC
2013-07-04 00:02:00,73.0,73.0,-100.00,East,91,4.0,-999.0,98,0.00,,,-99.99,0.000000,,2013-07-04 04:02:00,
2013-07-04 00:11:00,73.0,73.0,-100.00,East,91,4.0,-999.0,98,0.00,,,-99.99,0.000000,,2013-07-04 04:11:00,
2013-07-04 00:22:00,73.0,73.0,-100.00,ESE,118,4.0,-999.0,98,0.00,,,-99.99,0.000000,,2013-07-04 04:22:00,
2013-07-04 00:43:00,73.0,72.0,-100.00,SSE,150,3.0,-999.0,98,0.00,,,-99.99,0.000000,,2013-07-04 04:43:00,
2013-07-04 00:52:00,73.0,73.0,-100.00,SE,135,3.0,-999.0,98,0.00,,,-99.99,0.000000,,2013-07-04 04:52:00,
2013-07-04 01:02:00,73.0,73.0,-100.00,SE,135,3.0,-999.0,98,0.00,,,-99.99,0.000000,,2013-07-04 05:02:00,
2013-07-04 01:22:00,73.0,72.0,-100.00,ESE,103,3.0,-999.0,98,0.00,,,-99.99,0.000000,,2013-07-04 05:22:00,
2013-07-04 01:52:00,72.0,72.0,-100.00,ESE,108,4.0,-999.0,98,0.00,,,-99.99,0.100000,,2013-07-04 05:52:00,
2013-07-04 02:11:00,72.0,72.0,-100.00,ESE,104,4.0,-999.0,98,0.00,,,-99.99,0.100000,,2013-07-04 06:11:00,
2013-07-04 02:22:00,72.0,72.0,-100.00,ESE,108,4.0,-999.0,98,0.00,,,-99.99,0.100000,,2013-07-04 06:22:00,
2013-07-04 02:34:00,73.0,72.0,-100.00,ESE,117,5.0,-999.0,98,0.00,,,-99.99,0.100000,,2013-07-04 06:34:00,
2013-07-04 02:53:00,73.0,72.0,-100.00,ESE,117,4.0,-999.0,98,0.00,,,-99.99,0.100000,,2013-07-04 06:53:00,
2013-07-04 03:02:00,73.0,72.0,-100.00,East,98,4.0,-999.0,98,0.00,,,-99.99,0.100000,,2013-07-04 07:02:00,
2013-07-04 03:22:00,73.0,72.0,-100.00,ESE,106,4.0,-999.0,99,0.00,,,-99.99,0.100000,,2013-07-04 07:22:00,
2013-07-04 03:34:00,73.0,72.0,-100.00,ESE,120,4.0,-999.0,99,0.00,,,-99.99,0.100000,,2013-07-04 07:34:00,
2013-07-04 03:52:00,73.0,72.0,-100.00,ESE,103,4.0,-999.0,99,0.00,,,-99.99,0.100000,,2013-07-04 07:52:00,
2013-07-04 04:02:00,73.0,72.0,-100.00,ESE,121,3.0,-999.0,99,0.00,,,-99.99,0.100000,,2013-07-04 08:02:00,
2013-07-04 04:22:00,73.0,72.0,-100.00,ESE,102,3.0,-999.0,99,0.00,,,-99.99,0.100000,,2013-07-04 08:22:00,
2013-07-04 04:33:00,72.0,72.0,-100.00,East,86,3.0,-999.0,99,0.00,,,-99.99,0.100000,,2013-07-04 08:33:00,
2013-07-04 04:53:00,72.0,72.0,-100.00,East,94,2.0,-999.0,99,0.00,,,-99.99,0.100000,,2013-07-04 08:53:00,
2013-07-04 05:11:00,72.0,72.0,-100.00,ESE,106,3.0,-999.0,99,0.00,,,-99.99,0.100000,,2013-07-04 09:11:00,
2013-07-04 05:22:00,72.0,72.0,-100.00,East,99,4.0,-999.0,99,0.00,,,-99.99,0.400000,,2013-07-04 09:22:00,
2013-07-04 05:42:00,72.0,72.0,-100.00,East,98,3.0,-999.0,99,0.00,,,-99.99,0.300000,,2013-07-04 09:42:00,
2013-07-04 05:52:00,72.0,72.0,-100.00,East,98,3.0,-999.0,99,0.00,,,-99.99,0.200000,,2013-07-04 09:52:00,
2013-07-04 06:01:00,72.0,72.0,-100.00,East,98,3.0,-999.0,99,0.00,,,-99.99,0.200000,,2013-07-04 10:01:00,
2013-07-04 06:11:00,73.0,73.0,-100.00,East,90,4.0,-999.0,99,0.00,,,-99.99,0.100000,,2013-07-04 10:11:00,
2013-07-04 06:22:00,73.0,73.0,-100.00,East,100,5.0,-999.0,99,0.00,,,-99.99,0.100000,,2013-07-04 10:22:00,
2013-07-04 06:34:00,73.0,73.0,-100.00,East,100,5.0,-999.0,99,0.00,,,-99.99,0.100000,,2013-07-04 10:34:00,
2013-07-04 06:43:00,73.0,73.0,-100.00,East,100,5.0,-999.0,99,0.00,,,-99.99,0.200000,,2013-07-04 10:43:00,
2013-07-04 06:53:00,73.0,73.0,-100.00,East,91,5.0,-999.0,100,0.00,,,-99.99,2.300000,,2013-07-04 10:53:00,
2013-07-04 07:02:00,73.0,73.0,-100.00,East,91,5.0,-999.0,100,0.00,,,-99.99,2.300000,,2013-07-04 11:02:00,
2013-07-04 07:11:00,73.0,73.0,-100.00,East,98,5.0,-999.0,100,0.00,,,-99.99,8.100000,,2013-07-04 11:11:00,
2013-07-04 07:34:00,73.0,73.0,-100.00,East,96,4.0,-999.0,100,0.00,,,-99.99,29.299999,,2013-07-04 11:34:00,
2013-07-04 07:53:00,74.0,74.0,-100.00,East,97,5.0,-999.0,99,0.00,,,-99.99,68.000000,,2013-07-04 11:53:00,
2013-07-04 08:02:00,74.0,74.0,-100.00,East,97,5.0,-999.0,99,0.00,,,-99.99,68.000000,,2013-07-04 12:02:00,
2013-07-04 08:12:00,75.0,75.0,-100.00,East,95,6.0,-999.0,99,0.00,,,-99.99,69.900002,,2013-07-04 12:12:00,
2013-07-04 08:22:00,75.0,75.0,-100.00,East,94,6.0,-999.0,98,0.00,,,-99.99,123.599998,,2013-07-04 12:22:00,
2013-07-04 08:33:00,75.0,75.0,-100.00,East,94,6.0,-999.0,98,0.00,,,-99.99,123.599998,,2013-07-04 12:33:00,
2013-07-04 08:43:00,76.0,76.0,-100.00,ESE,102,6.0,-999.0,98,0.00,,,-99.99,127.099998,,2013-07-04 12:43:00,
2013-07-04 08:52:00,77.0,76.0,-100.00,ESE,111,7.0,-999.0,97,0.00,,,-99.99,212.399994,,2013-07-04 12:52:00,
2013-07-04 09:12:00,79.0,77.0,-100.00,ESE,111,7.0,-999.0,95,0.00,,,-99.99,322.100006,,2013-07-04 13:12:00,
2013-07-04 09:53:00,81.0,77.0,-100.00,SE,128,10.0,-999.0,87,0.00,,,-99.99,433.899994,,2013-07-04 13:53:00,
2013-07-04 10:12:00,82.0,77.0,-100.00,SE,131,10.0,-999.0,85,0.00,,,-99.99,497.600006,,2013-07-04 14:12:00,
2013-07-04 10:22:00,82.0,77.0,-100.00,SE,130,12.0,-999.0,84,0.00,,,-99.99,538.500000,,2013-07-04 14:22:00,
2013-07-04 10:53:00,83.0,77.0,-100.00,SE,126,13.0,-999.0,81,0.00,,,-99.99,451.200012,,2013-07-04 14:53:00,
2013-07-04 11:23:00,84.0,77.0,-100.00,SE,136,10.0,-999.0,78,0.00,,,-99.99,483.600006,,2013-07-04 15:23:00,
2013-07-04 11:53:00,87.0,76.0,-100.00,SE,141,11.0,-999.0,70,0.00,,,-99.99,862.000000,,2013-07-04 15:53:00,
2013-07-04 12:22:00,87.0,75.0,-100.00,SSE,151,10.0,-999.0,68,0.00,,,-99.99,691.299988,,2013-07-04 16:22:00,
2013-07-04 12:52:00,88.0,75.0,-100.00,SE,144,10.0,-999.0,65,0.00,,,-99.99,736.000000,,2013-07-04 16:52:00,
2013-07-04 13:22:00,89.0,73.0,-100.00,SE,142,11.0,-999.0,59,0.00,,,-99.99,880.000000,,2013-07-04 17:22:00,
2013-07-04 13:53:00,90.0,71.0,-100.00,SE,146,12.0,-999.0,54,0.00,,,-99.99,778.000000,,2013-07-04 17:53:00,
2013-07-04 14:01:00,90.0,72.0,-100.00,SE,138,11.0,-999.0,55,0.00,,,-99.99,720.000000,,2013-07-04 18:01:00,
2013-07-04 14:22:00,90.0,72.0,-100.00,SE,144,13.0,-999.0,54,0.00,,,-99.99,857.000000,,2013-07-04 18:22:00,
2013-07-04 14:52:00,90.0,72.0,-100.00,SE,133,12.0,-999.0,55,0.00,,,-99.99,726.000000,,2013-07-04 18:52:00,
2013-07-04 15:22:00,90.0,73.0,-100.00,SE,132,11.0,-999.0,56,0.00,,,-99.99,625.099976,,2013-07-04 19:22:00,
2013-07-04 15:53:00,90.0,73.0,-100.00,SE,129,11.0,-999.0,57,0.00,,,-99.99,611.400024,,2013-07-04 19:53:00,
2013-07-04 16:01:00,90.0,73.0,-100.00,SE,132,11.0,-999.0,57,0.00,,,-99.99,351.799988,,2013-07-04 20:01:00,
2013-07-04 16:22:00,87.0,73.0,-100.00,South,178,10.0,-999.0,63,0.00,,,-99.99,214.100006,,2013-07-04 20:22:00,
2013-07-04 16:34:00,85.0,73.0,-100.00,South,186,7.0,-999.0,67,0.00,,,-99.99,258.000000,,2013-07-04 20:34:00,
2013-07-04 16:53:00,86.0,73.0,-100.00,SSE,168,5.0,-999.0,66,0.00,,,-99.99,352.000000,,2013-07-04 20:53:00,
2013-07-04 17:22:00,80.0,72.0,-100.00,SE,139,11.0,-999.0,75,0.03,,,-99.99,88.699997,,2013-07-04 21:22:00,
2013-07-04 17:32:00,75.0,70.0,-100.00,ESE,115,7.0,-999.0,84,0.00,,,-99.99,58.599998,,2013-07-04 21:32:00,
2013-07-04 17:53:00,76.0,72.0,-100.00,ESE,107,2.0,-999.0,88,0.00,,,-99.99,91.099998,,2013-07-04 21:53:00,
2013-07-04 18:02:00,76.0,73.0,-100.00,East,81,2.0,-999.0,89,0.00,,,-99.99,95.000000,,2013-07-04 22:02:00,
2013-07-04 18:22:00,77.0,74.0,-100.00,SE,140,1.0,-999.0,89,0.00,,,-99.99,100.099998,,2013-07-04 22:22:00,
2013-07-04 18:33:00,78.0,75.0,-100.00,SW,224,1.0,-999.0,89,0.00,,,-99.99,88.699997,,2013-07-04 22:33:00,
2013-07-04 18:52:00,79.0,76.0,-100.00,East,94,4.0,-999.0,90,0.00,,,-99.99,131.699997,,2013-07-04 22:52:00,
2013-07-04 19:23:00,79.0,77.0,-100.00,East,87,3.0,-999.0,90,0.00,,,-99.99,111.300003,,2013-07-04 23:23:00,
2013-07-04 19:33:00,79.0,77.0,-100.00,East,87,3.0,-999.0,90,0.00,,,-99.99,111.300003,,2013-07-04 23:33:00,
2013-07-04 19:52:00,80.0,77.0,-100.00,East,94,4.0,-999.0,91,0.00,,,-99.99,37.900002,,2013-07-04 23:52:00,
2013-07-04 20:01:00,77.0,74.0,-100.00,SE,131,12.0,-999.0,90,0.11,,,-99.99,17.900000,,2013-07-05 00:01:00,
2013-07-04 20:22:00,72.0,70.0,-100.00,ESE,121,12.0,-999.0,90,0.71,,,-99.99,4.100000,,2013-07-05 00:22:00,
2013-07-04 20:32:00,71.0,69.0,-100.00,NE,51,4.0,-999.0,92,0.03,,,-99.99,1.400000,,2013-07-05 00:32:00,
2013-07-04 20:52:00,72.0,70.0,-100.00,East,95,5.0,-999.0,92,0.00,,,-99.99,0.500000,,2013-07-05 00:52:00,
2013-07-04 21:01:00,72.0,70.0,-100.00,East,95,5.0,-999.0,92,0.00,,,-99.99,0.500000,,2013-07-05 01:01:00,
2013-07-04 21:22:00,72.0,70.0,-100.00,West,260,3.0,-999.0,95,0.00,,,-99.99,0.000000,,2013-07-05 01:22:00,
2013-07-04 21:32:00,72.0,71.0,-100.00,NW,317,2.0,-999.0,96,0.00,,,-99.99,0.000000,,2013-07-05 01:32:00,
2013-07-04 21:52:00,72.0,71.0,-100.00,NW,314,2.0,-999.0,97,0.00,,,-99.99,0.000000,,2013-07-05 01:52:00,
2013-07-04 22:02:00,72.0,71.0,-100.00,NW,326,2.0,-999.0,97,0.00,,,-99.99,0.000000,,2013-07-05 02:02:00,
2013-07-04 22:22:00,72.0,71.0,-100.00,WNW,299,1.0,-999.0,98,0.00,,,-99.99,0.100000,,2013-07-05 02:22:00,
2013-07-04 22:53:00,72.0,72.0,-100.00,NW,323,2.0,-999.0,98,0.00,,,-99.99,0.100000,,2013-07-05 02:53:00,
2013-07-04 23:22:00,72.0,72.0,-100.00,NE,39,1.0,-999.0,98,0.00,,,-99.99,0.100000,,2013-07-05 03:22:00,
2013-07-04 23:52:00,72.0,72.0,-100.00,NE,50,2.0,-999.0,99,0.00,,,-99.99,0.100000,,2013-07-05 03:52:00,